createdAt,value
2019-02-16T00:02:00.138Z,5.08
2019-02-16T00:04:31.418Z,4.90
2019-02-16T00:07:01.639Z,4.80
2019-02-16T00:09:33.670Z,4.45
2019-02-16T00:12:04.014Z,5.20
2019-02-16T00:14:34.200Z,4.42
2019-02-16T00:17:04.310Z,4.95
2019-02-16T00:19:34.878Z,4.55
2019-02-16T00:22:05.064Z,5.83
2019-02-16T00:24:37.245Z,4.92
2019-02-16T00:27:07.448Z,4.78
2019-02-16T00:29:37.644Z,5.28
2019-02-16T00:32:08.303Z,4.40
2019-02-16T00:34:38.533Z,5.08
2019-02-16T00:37:08.668Z,4.58
2019-02-16T00:39:39.714Z,5.95
2019-02-16T00:42:10.781Z,4.87
2019-02-16T00:44:41.029Z,3.95
2019-02-16T00:47:11.719Z,4.53
2019-02-16T00:49:41.815Z,4.30
2019-02-16T00:52:13.039Z,4.60
2019-02-16T00:54:43.167Z,4.53
2019-02-16T00:57:13.405Z,4.00
2019-02-16T00:59:43.852Z,4.60
2019-02-16T01:02:15.032Z,5.40
2019-02-16T01:04:45.154Z,4.42
2019-02-16T01:07:15.411Z,4.95
2019-02-16T01:09:45.883Z,5.05
2019-02-16T01:12:16.996Z,4.20
2019-02-16T01:14:47.140Z,4.62
2019-02-16T01:17:18.681Z,4.62
2019-02-16T01:19:48.824Z,3.72
2019-02-16T01:22:19.624Z,4.75
2019-02-16T01:24:50.901Z,4.90
2019-02-16T01:27:21.080Z,4.65
2019-02-16T01:29:51.259Z,4.30
2019-02-16T01:32:21.455Z,3.77
2019-02-16T01:34:51.601Z,4.15
2019-02-16T01:37:21.927Z,3.80
2019-02-16T01:39:52.139Z,4.33
2019-02-16T01:42:22.275Z,4.87
2019-02-16T01:44:54.125Z,5.25
2019-02-16T01:47:24.250Z,4.87
2019-02-16T01:49:56.202Z,5.95
2019-02-16T01:52:26.395Z,4.37
2019-02-16T01:54:56.579Z,4.67
2019-02-16T01:57:26.701Z,4.80
2019-02-16T01:59:57.663Z,4.83
2019-02-16T02:02:28.386Z,4.90
2019-02-16T02:04:58.526Z,4.10
2019-02-16T02:07:29.207Z,4.92
2019-02-16T02:09:59.348Z,5.28
2019-02-16T02:12:31.071Z,4.17
2019-02-16T02:15:01.352Z,4.22
2019-02-16T02:17:32.265Z,4.80
2019-02-16T02:20:02.418Z,3.85
2019-02-16T02:22:32.573Z,4.40
2019-02-16T02:25:02.725Z,5.08
2019-02-16T02:27:32.922Z,3.75
2019-02-16T02:30:03.628Z,3.90
2019-02-16T02:32:34.249Z,4.62
2019-02-16T02:35:05.511Z,3.22
2019-02-16T02:37:36.234Z,4.80
2019-02-16T02:40:06.567Z,4.15
2019-02-16T02:42:36.728Z,5.28
2019-02-16T02:45:08.098Z,4.70
2019-02-16T02:47:39.761Z,5.10
2019-02-16T02:50:10.340Z,5.75
2019-02-16T02:52:40.505Z,5.62
2019-02-16T02:55:10.627Z,5.42
2019-02-16T02:57:43.368Z,4.78
2019-02-16T03:00:13.668Z,4.45
2019-02-16T03:02:43.870Z,4.72
2019-02-16T03:05:14.042Z,4.10
2019-02-16T03:07:44.538Z,3.40
2019-02-16T03:10:14.695Z,3.90
2019-02-16T03:12:44.843Z,4.50
2019-02-16T03:15:15.032Z,5.22
2019-02-16T03:17:45.171Z,5.03
2019-02-16T03:20:16.223Z,6.12
2019-02-16T03:23:22.544Z,4.58
2019-02-16T03:26:05.692Z,5.00
2019-02-16T03:28:44.871Z,5.42
2019-02-16T03:31:46.602Z,4.55
2019-02-16T03:34:56.538Z,4.33
2019-02-16T03:38:05.600Z,4.65
2019-02-16T03:40:37.729Z,4.40
2019-02-16T03:43:10.209Z,4.20
2019-02-16T03:45:40.696Z,5.03
2019-02-16T03:48:10.903Z,4.95
2019-02-16T03:50:41.078Z,4.87
2019-02-16T03:53:11.246Z,4.60
2019-02-16T03:55:41.387Z,6.30
2019-02-16T03:58:11.565Z,4.90
2019-02-16T04:00:41.713Z,5.40
2019-02-16T04:03:12.269Z,4.60
2019-02-16T04:05:43.979Z,5.40
2019-02-16T04:08:15.034Z,4.08
2019-02-16T04:10:45.222Z,5.45
2019-02-16T04:13:15.405Z,5.92
2019-02-16T04:15:45.641Z,4.85
2019-02-16T04:18:20.355Z,4.75
2019-02-16T04:20:53.483Z,4.95
2019-02-16T04:23:23.660Z,4.00
2019-02-16T04:25:53.827Z,5.28
2019-02-16T04:28:23.989Z,5.22
2019-02-16T04:30:54.135Z,4.67
2019-02-16T04:33:24.312Z,4.33
2019-02-16T04:35:54.445Z,5.80
2019-02-16T04:38:26.041Z,4.45
2019-02-16T04:40:56.220Z,4.53
2019-02-16T04:43:26.348Z,4.35
2019-02-16T04:45:56.803Z,5.00
2019-02-16T04:48:29.323Z,4.58
2019-02-16T04:51:00.942Z,4.45
2019-02-16T04:53:32.727Z,4.70
2019-02-16T04:56:02.869Z,4.45
2019-02-16T04:58:33.844Z,4.60
2019-02-16T05:01:07.336Z,5.53
2019-02-16T05:03:40.386Z,4.83
2019-02-16T05:06:10.595Z,5.50
2019-02-16T05:08:40.735Z,4.83
2019-02-16T05:11:13.955Z,5.30
2019-02-16T05:13:46.414Z,5.12
2019-02-16T05:16:17.605Z,4.78
2019-02-16T05:18:47.838Z,4.90
2019-02-16T05:21:20.891Z,5.15
2019-02-16T05:23:51.070Z,5.00
2019-02-16T05:26:21.215Z,5.40
2019-02-16T05:28:52.575Z,5.70
2019-02-16T05:31:22.715Z,5.62
2019-02-16T05:33:53.727Z,5.50
2019-02-16T05:36:23.877Z,5.33
2019-02-16T05:38:55.846Z,5.10
2019-02-16T05:41:26.300Z,4.65
2019-02-16T06:11:50.122Z,4.10
2019-02-16T06:19:39.846Z,5.53
2019-02-16T06:37:40.063Z,5.00
2019-02-16T06:40:11.351Z,5.03
2019-02-16T06:42:42.752Z,5.90
2019-02-16T06:45:13.784Z,7.03
2019-02-16T06:47:44.385Z,8.48
2019-02-16T06:50:16.308Z,6.58
2019-02-16T06:52:46.923Z,6.72
2019-02-16T06:55:17.067Z,7.20
2019-02-16T06:57:49.956Z,6.90
2019-02-16T07:00:22.990Z,5.67
2019-02-16T07:02:54.672Z,5.72
2019-02-16T07:05:24.854Z,6.92
2019-02-16T07:16:05.378Z,7.78
2019-02-16T07:19:59.336Z,8.20
2019-02-16T08:16:08.190Z,34.25
2019-02-16T08:39:05.818Z,15.63
2019-02-16T08:49:34.779Z,16.37
2019-02-16T08:56:14.739Z,16.77
2019-02-16T08:59:12.938Z,16.52
2019-02-16T09:01:52.641Z,16.90
2019-02-16T09:04:40.244Z,16.93
2019-02-16T09:07:27.843Z,16.95
2019-02-16T09:21:52.403Z,16.00
2019-02-16T09:25:44.882Z,15.83
2019-02-16T09:33:00.361Z,9.63
2019-02-16T09:39:21.020Z,10.30
2019-02-16T09:53:43.488Z,11.43
2019-02-16T10:38:33.497Z,10.90
2019-02-16T10:40:39.929Z,13.90
2019-02-16T10:43:32.624Z,12.60
2019-02-16T10:46:21.325Z,11.18
2019-02-16T10:49:08.005Z,14.23
2019-02-16T10:51:55.722Z,10.10
2019-02-16T10:54:43.431Z,10.90
2019-02-16T10:57:31.326Z,9.78
2019-02-16T11:00:37.398Z,9.78
2019-02-16T11:03:25.503Z,10.40
2019-02-16T11:06:14.819Z,10.05
2019-02-16T11:08:55.463Z,9.83
2019-02-16T11:11:35.418Z,9.75
2019-02-16T11:14:23.107Z,8.78
2019-02-16T11:17:20.121Z,9.50
2019-02-16T11:20:16.208Z,9.50
2019-02-16T11:23:21.414Z,9.68
2019-02-16T11:26:29.101Z,8.08
2019-02-16T11:29:33.934Z,8.45
2019-02-16T11:32:38.131Z,9.50
2019-02-16T11:35:36.321Z,8.35
2019-02-16T11:38:31.530Z,8.85
2019-02-16T11:41:23.625Z,8.28
2019-02-16T11:44:18.843Z,9.03
2019-02-16T11:47:11.448Z,7.03
2019-02-16T11:50:03.907Z,8.93
2019-02-16T11:52:50.288Z,6.75
2019-02-16T11:55:57.838Z,5.70
2019-02-16T11:58:45.537Z,6.35
2019-02-16T12:01:43.657Z,5.62
2019-02-16T12:04:30.395Z,5.60
2019-02-16T12:07:22.624Z,3.87
2019-02-16T12:10:27.081Z,4.53
2019-02-16T12:13:17.079Z,5.30
2019-02-16T12:16:07.994Z,5.83
2019-02-16T12:19:09.341Z,4.85
2019-02-16T12:21:57.223Z,6.47
2019-02-16T12:24:55.707Z,5.67
2019-02-16T12:27:36.163Z,5.53
2019-02-16T12:30:17.759Z,5.25
2019-02-16T12:33:09.892Z,5.70
2019-02-16T12:36:08.218Z,5.17
2019-02-16T12:38:45.701Z,4.97
2019-02-16T12:41:33.427Z,5.65
2019-02-16T12:44:22.849Z,4.87
2019-02-16T12:47:21.286Z,3.65
2019-02-16T12:50:08.661Z,4.60
2019-02-16T12:53:06.778Z,4.58
2019-02-16T12:55:54.685Z,4.55
2019-02-16T12:58:33.776Z,4.20
2019-02-16T13:01:13.437Z,4.08
2019-02-16T13:04:02.528Z,3.60
2019-02-16T13:06:58.666Z,3.40
2019-02-16T13:09:47.919Z,2.87
2019-02-16T13:12:35.297Z,3.70
2019-02-16T13:15:23.269Z,3.75
2019-02-16T13:18:11.039Z,3.90
2019-02-16T13:21:00.128Z,3.87
2019-02-16T13:23:38.377Z,4.10
2019-02-16T13:26:30.440Z,3.80
2019-02-16T13:29:16.086Z,3.40
2019-02-16T13:32:06.497Z,3.27
2019-02-16T13:34:44.989Z,4.10
2019-02-16T13:37:27.310Z,3.50
2019-02-16T13:40:19.725Z,4.15
2019-02-16T13:42:59.572Z,5.25
2019-02-16T13:45:38.975Z,4.45
2019-02-16T13:48:28.785Z,4.85
2019-02-16T13:51:17.917Z,4.75
2019-02-16T13:54:06.520Z,4.37
2019-02-16T13:56:55.043Z,4.00
2019-02-16T13:59:47.122Z,2.92
2019-02-16T14:02:48.934Z,2.95
2019-02-16T14:05:38.010Z,2.42
2019-02-16T14:08:27.170Z,2.50
2019-02-16T14:11:25.523Z,1.82
2019-02-16T14:14:05.930Z,2.62
2019-02-16T14:17:03.221Z,2.60
2019-02-16T14:19:32.707Z,2.67
2019-02-16T14:22:02.760Z,2.43
2019-02-16T14:24:44.637Z,2.03
2019-02-16T14:27:14.786Z,2.30
2019-02-16T14:29:44.927Z,2.27
2019-02-16T14:32:15.331Z,1.83
2019-02-16T14:34:45.727Z,2.70
2019-02-16T14:37:37.876Z,2.87
2019-02-16T14:40:08.149Z,2.30
2019-02-16T14:42:38.274Z,2.40
2019-02-16T14:45:15.286Z,2.70
2019-02-16T14:48:07.537Z,3.33
2019-02-16T14:50:37.660Z,2.63
2019-02-16T14:53:20.730Z,2.20
2019-02-16T14:55:54.102Z,3.20
2019-02-16T14:58:22.698Z,2.97
2019-02-16T15:00:59.708Z,3.13
2019-02-16T15:03:35.694Z,3.20
2019-02-16T15:06:15.042Z,4.70
2019-02-16T15:08:45.173Z,3.43
2019-02-16T15:11:39.892Z,3.50
2019-02-16T15:14:29.531Z,3.13
2019-02-16T15:17:13.291Z,3.23
2019-02-16T15:19:51.735Z,3.30
2019-02-16T15:22:21.882Z,3.13
2019-02-16T15:24:52.011Z,3.27
2019-02-16T15:27:22.379Z,3.37
2019-02-16T15:30:03.004Z,2.43
2019-02-16T15:32:54.368Z,3.10
2019-02-16T15:35:33.238Z,3.40
2019-02-16T15:38:21.465Z,3.07
2019-02-16T15:41:12.983Z,2.97
2019-02-16T15:43:43.288Z,3.23
2019-02-16T15:47:05.208Z,3.03
2019-02-16T15:49:15.920Z,3.10
2019-02-16T15:51:53.800Z,4.70
2019-02-16T15:54:27.382Z,3.20
2019-02-16T15:57:02.365Z,2.83
2019-02-16T15:59:51.114Z,3.17
2019-02-16T16:02:22.580Z,3.05
2019-02-16T16:04:52.743Z,3.12
2019-02-16T16:07:22.967Z,2.92
2019-02-16T16:10:15.458Z,2.90
2019-02-16T16:13:14.578Z,3.00
2019-02-16T16:15:52.932Z,3.30
2019-02-16T16:18:42.885Z,2.62
2019-02-16T16:21:39.147Z,3.10
2019-02-16T16:24:27.860Z,3.12
2019-02-16T16:27:19.728Z,3.52
2019-02-16T16:30:01.116Z,3.00
2019-02-16T16:32:51.872Z,2.80
2019-02-16T16:35:38.055Z,3.52
2019-02-16T16:38:38.990Z,2.50
2019-02-16T16:41:27.369Z,3.10
2019-02-16T16:44:27.360Z,2.62
2019-02-16T16:47:22.865Z,2.70
2019-02-16T16:50:22.191Z,2.10
2019-02-16T16:53:20.565Z,2.58
2019-02-16T16:56:03.510Z,3.83
2019-02-16T16:58:55.614Z,2.92
2019-02-16T17:01:49.401Z,2.72
2019-02-16T17:04:24.667Z,3.35
2019-02-16T17:07:13.747Z,3.65
2019-02-16T17:10:05.921Z,3.75
2019-02-16T17:12:50.576Z,3.02
2019-02-16T17:15:33.450Z,2.72
2019-02-16T17:18:19.848Z,3.00
2019-02-16T17:21:17.329Z,2.83
2019-02-16T17:24:08.685Z,2.75
2019-02-16T17:26:57.030Z,2.92
2019-02-16T17:29:46.580Z,2.75
2019-02-16T17:32:34.283Z,2.80
2019-02-16T17:35:27.427Z,2.42
2019-02-16T17:38:09.745Z,2.65
2019-02-16T17:41:00.221Z,2.40
2019-02-16T17:43:52.665Z,2.35
2019-02-16T17:46:55.756Z,2.72
2019-02-16T17:49:45.548Z,2.62
2019-02-16T17:52:38.708Z,3.77
2019-02-16T17:55:21.394Z,2.25
2019-02-16T17:58:11.158Z,3.75
2019-02-16T18:01:09.593Z,3.30
2019-02-16T18:03:59.352Z,2.55
2019-02-16T18:06:57.809Z,2.30
2019-02-16T18:09:46.920Z,2.90
2019-02-16T18:12:54.559Z,2.92
2019-02-16T18:15:43.262Z,2.90
2019-02-16T18:18:32.084Z,2.92
2019-02-16T18:21:30.662Z,3.30
2019-02-16T18:24:25.437Z,3.20
2019-02-16T18:27:20.637Z,3.17
2019-02-16T18:30:26.417Z,2.40
2019-02-16T18:33:14.990Z,2.40
2019-02-16T18:36:04.193Z,2.12
2019-02-16T18:38:53.461Z,2.65
2019-02-16T18:41:42.072Z,2.05
2019-02-16T18:44:46.118Z,2.80
2019-02-16T18:47:40.425Z,2.10
2019-02-16T18:50:37.063Z,2.60
2019-02-16T18:53:29.653Z,3.15
2019-02-16T18:56:19.444Z,2.12
2019-02-16T18:59:07.731Z,2.22
2019-02-16T19:02:00.139Z,3.30
2019-02-16T19:04:39.836Z,3.40
2019-02-16T19:07:26.206Z,2.27
2019-02-16T19:10:14.497Z,3.35
2019-02-16T19:12:54.970Z,3.55
2019-02-16T19:15:34.743Z,3.27
2019-02-16T19:18:24.194Z,3.50
2019-02-16T19:21:12.299Z,4.10
2019-02-16T19:24:04.615Z,3.40
2019-02-16T19:26:45.199Z,2.80
2019-02-16T19:29:39.052Z,2.87
2019-02-16T19:32:32.196Z,3.42
2019-02-16T19:35:27.026Z,3.25
2019-02-16T19:38:29.166Z,3.42
2019-02-16T19:41:22.093Z,3.10
2019-02-16T19:44:11.595Z,3.42
2019-02-16T19:47:13.031Z,3.67
2019-02-16T19:50:14.457Z,4.25
2019-02-16T19:53:18.516Z,3.40
2019-02-16T19:56:17.695Z,4.40
2019-02-16T19:59:08.193Z,3.62
2019-02-16T20:02:06.329Z,4.40
2019-02-16T20:05:03.373Z,3.70
2019-02-16T20:07:55.839Z,3.10
2019-02-16T20:10:52.777Z,3.70
2019-02-16T20:14:00.514Z,3.67
2019-02-16T20:16:37.269Z,3.42
2019-02-16T20:19:22.293Z,4.10
2019-02-16T20:22:17.848Z,3.95
2019-02-16T20:25:05.570Z,3.83
2019-02-16T20:27:57.848Z,3.90
2019-02-16T20:30:52.865Z,4.65
2019-02-16T20:33:40.937Z,3.67
2019-02-16T20:36:37.085Z,4.00
2019-02-16T20:39:25.568Z,4.45
2019-02-16T20:42:10.428Z,3.65
2019-02-16T20:45:00.399Z,4.10
2019-02-16T20:47:54.428Z,4.47
2019-02-16T20:50:50.756Z,4.65
2019-02-16T20:53:34.641Z,4.80
2019-02-16T20:56:18.742Z,4.12
2019-02-16T20:59:06.674Z,3.90
2019-02-16T21:01:59.134Z,4.75
2019-02-16T21:04:54.801Z,4.00
2019-02-16T21:07:42.358Z,4.53
2019-02-16T21:10:43.865Z,4.75
2019-02-16T21:13:19.928Z,5.45
2019-02-16T21:16:08.063Z,4.10
2019-02-16T21:19:15.387Z,5.65
2019-02-16T21:22:10.648Z,4.55
2019-02-16T21:24:48.064Z,3.62
2019-02-16T21:27:26.657Z,3.95
2019-02-16T21:30:18.561Z,4.50
2019-02-16T21:33:02.484Z,4.22
2019-02-16T21:35:52.152Z,4.37
2019-02-16T21:38:40.013Z,4.58
2019-02-16T21:41:42.463Z,3.90
2019-02-16T21:44:36.366Z,3.30
2019-02-16T21:47:21.507Z,4.35
2019-02-16T21:50:09.456Z,4.17
2019-02-16T21:52:58.593Z,4.35
2019-02-16T21:55:51.056Z,5.50
2019-02-16T21:58:39.254Z,4.12
2019-02-16T22:01:26.087Z,4.80
2019-02-16T22:04:16.231Z,4.45
2019-02-16T22:06:56.976Z,4.62
2019-02-16T22:10:01.308Z,4.67
2019-02-16T22:12:49.457Z,4.70
2019-02-16T22:15:19.797Z,3.35
2019-02-16T22:17:50.208Z,4.70
2019-02-16T22:20:21.606Z,4.62
2019-02-16T22:22:58.965Z,4.75
2019-02-16T22:25:30.520Z,4.00
2019-02-16T22:28:02.502Z,5.45
2019-02-16T22:30:32.723Z,6.15
2019-02-16T22:33:02.960Z,6.30
2019-02-16T22:35:33.133Z,5.72
2019-02-16T22:38:04.259Z,4.85
2019-02-16T22:40:34.586Z,4.33
2019-02-16T22:43:05.586Z,4.50
2019-02-16T22:45:35.763Z,4.40
2019-02-16T22:48:07.264Z,4.17
2019-02-16T22:50:40.660Z,4.80
2019-02-16T22:53:11.639Z,4.95
2019-02-16T22:55:44.685Z,5.65
2019-02-16T22:58:14.843Z,6.40
2019-02-16T23:00:50.166Z,5.30
2019-02-16T23:03:20.456Z,5.28
2019-02-16T23:05:50.907Z,5.30
2019-02-16T23:08:23.421Z,5.05
2019-02-16T23:10:53.754Z,4.80
2019-02-16T23:13:24.604Z,4.80
2019-02-16T23:15:54.797Z,5.10
2019-02-16T23:18:25.268Z,4.03
2019-02-16T23:20:59.522Z,5.28
2019-02-16T23:23:30.800Z,6.28
2019-02-16T23:26:03.299Z,5.80
2019-02-16T23:28:39.036Z,5.28
2019-02-16T23:31:10.211Z,4.97
2019-02-16T23:33:42.307Z,5.15
2019-02-16T23:36:20.620Z,5.05
2019-02-16T23:38:52.519Z,4.40
2019-02-16T23:41:24.205Z,5.37
2019-02-16T23:43:54.466Z,5.03
2019-02-16T23:46:27.306Z,6.25
2019-02-16T23:48:57.449Z,6.92
2019-02-16T23:51:27.617Z,6.30
2019-02-16T23:53:58.322Z,6.53
2019-02-16T23:56:30.711Z,7.37
2019-02-16T23:59:02.258Z,5.75
